sensor_id;sensor_type;location;lat;lon;timestamp;P1;durP1;ratioP1;P2;durP2;ratioP2
40731;SDS011;26420;52.256;9.096;2022-08-01T00:02:10;6.20;;;4.47;;
40731;SDS011;26420;52.256;9.096;2022-08-01T00:07:12;3.85;;;3.00;;
40731;SDS011;26420;52.256;9.096;2022-08-01T00:12:14;3.08;;;2.38;;
40731;SDS011;26420;52.256;9.096;2022-08-01T00:17:15;5.35;;;2.78;;
40731;SDS011;26420;52.256;9.096;2022-08-01T00:22:17;3.95;;;3.50;;
40731;SDS011;26420;52.256;9.096;2022-08-01T00:27:19;5.55;;;4.40;;
40731;SDS011;26420;52.256;9.096;2022-08-01T00:32:20;6.32;;;5.10;;
40731;SDS011;26420;52.256;9.096;2022-08-01T00:37:22;6.03;;;5.30;;
40731;SDS011;26420;52.256;9.096;2022-08-01T00:42:24;6.50;;;4.82;;
40731;SDS011;26420;52.256;9.096;2022-08-01T00:47:25;7.30;;;5.32;;
40731;SDS011;26420;52.256;9.096;2022-08-01T00:52:27;7.55;;;4.95;;
40731;SDS011;26420;52.256;9.096;2022-08-01T00:57:29;7.03;;;4.95;;
40731;SDS011;26420;52.256;9.096;2022-08-01T01:02:51;8.82;;;4.60;;
40731;SDS011;26420;52.256;9.096;2022-08-01T01:07:59;7.82;;;4.85;;
40731;SDS011;26420;52.256;9.096;2022-08-01T01:13:08;6.88;;;4.70;;
40731;SDS011;26420;52.256;9.096;2022-08-01T01:18:20;8.07;;;5.15;;
40731;SDS011;26420;52.256;9.096;2022-08-01T01:29:03;7.63;;;5.50;;
40731;SDS011;26420;52.256;9.096;2022-08-01T01:34:19;7.68;;;5.68;;
40731;SDS011;26420;52.256;9.096;2022-08-01T01:39:23;8.55;;;5.65;;
40731;SDS011;26420;52.256;9.096;2022-08-01T01:44:28;8.20;;;6.25;;
40731;SDS011;26420;52.256;9.096;2022-08-01T01:49:30;7.07;;;6.10;;
40731;SDS011;26420;52.256;9.096;2022-08-01T01:54:36;7.15;;;5.97;;
40731;SDS011;26420;52.256;9.096;2022-08-01T01:59:40;7.22;;;5.65;;
40731;SDS011;26420;52.256;9.096;2022-08-01T02:04:44;9.02;;;6.03;;
40731;SDS011;26420;52.256;9.096;2022-08-01T02:09:47;7.60;;;5.88;;
40731;SDS011;26420;52.256;9.096;2022-08-01T02:14:50;6.07;;;5.05;;
40731;SDS011;26420;52.256;9.096;2022-08-01T02:19:54;7.97;;;5.13;;
40731;SDS011;26420;52.256;9.096;2022-08-01T02:30:08;5.78;;;4.05;;
40731;SDS011;26420;52.256;9.096;2022-08-01T02:35:13;4.40;;;3.78;;
40731;SDS011;26420;52.256;9.096;2022-08-01T02:40:21;5.90;;;3.60;;
40731;SDS011;26420;52.256;9.096;2022-08-01T02:45:24;6.63;;;3.97;;
40731;SDS011;26420;52.256;9.096;2022-08-01T02:50:28;5.18;;;3.70;;
40731;SDS011;26420;52.256;9.096;2022-08-01T02:55:33;5.40;;;3.92;;
40731;SDS011;26420;52.256;9.096;2022-08-01T03:00:36;4.03;;;3.53;;
40731;SDS011;26420;52.256;9.096;2022-08-01T03:05:39;5.65;;;3.88;;
40731;SDS011;26420;52.256;9.096;2022-08-01T03:10:42;6.75;;;3.83;;
40731;SDS011;26420;52.256;9.096;2022-08-01T03:15:46;4.82;;;4.13;;
40731;SDS011;26420;52.256;9.096;2022-08-01T03:20:49;5.93;;;4.15;;
40731;SDS011;26420;52.256;9.096;2022-08-01T03:25:54;6.35;;;4.45;;
40731;SDS011;26420;52.256;9.096;2022-08-01T03:30:58;5.03;;;4.40;;
40731;SDS011;26420;52.256;9.096;2022-08-01T03:36:01;6.22;;;4.28;;
40731;SDS011;26420;52.256;9.096;2022-08-01T03:41:14;7.70;;;4.72;;
40731;SDS011;26420;52.256;9.096;2022-08-01T03:46:26;6.30;;;4.72;;
40731;SDS011;26420;52.256;9.096;2022-08-01T03:51:48;6.90;;;4.63;;
40731;SDS011;26420;52.256;9.096;2022-08-01T03:56:52;6.35;;;4.13;;
40731;SDS011;26420;52.256;9.096;2022-08-01T04:01:55;5.72;;;4.20;;
40731;SDS011;26420;52.256;9.096;2022-08-01T04:06:57;5.57;;;4.28;;
40731;SDS011;26420;52.256;9.096;2022-08-01T04:12:05;5.07;;;3.92;;
40731;SDS011;26420;52.256;9.096;2022-08-01T04:17:12;5.03;;;3.67;;
40731;SDS011;26420;52.256;9.096;2022-08-01T04:22:14;6.28;;;3.47;;
40731;SDS011;26420;52.256;9.096;2022-08-01T04:27:17;3.85;;;2.90;;
40731;SDS011;26420;52.256;9.096;2022-08-01T04:32:44;7.63;;;3.88;;
40731;SDS011;26420;52.256;9.096;2022-08-01T04:37:48;7.85;;;4.13;;
40731;SDS011;26420;52.256;9.096;2022-08-01T04:42:52;9.13;;;4.68;;
40731;SDS011;26420;52.256;9.096;2022-08-01T04:47:54;7.28;;;4.28;;
40731;SDS011;26420;52.256;9.096;2022-08-01T04:52:57;7.90;;;5.22;;
40731;SDS011;26420;52.256;9.096;2022-08-01T04:57:59;7.43;;;4.05;;
40731;SDS011;26420;52.256;9.096;2022-08-01T05:03:01;10.27;;;5.00;;
40731;SDS011;26420;52.256;9.096;2022-08-01T05:08:03;6.28;;;4.35;;
40731;SDS011;26420;52.256;9.096;2022-08-01T05:13:04;6.13;;;4.10;;
40731;SDS011;26420;52.256;9.096;2022-08-01T05:18:07;7.72;;;4.10;;
40731;SDS011;26420;52.256;9.096;2022-08-01T05:23:09;5.35;;;3.90;;
40731;SDS011;26420;52.256;9.096;2022-08-01T05:28:22;4.63;;;3.40;;
40731;SDS011;26420;52.256;9.096;2022-08-01T05:33:24;4.70;;;3.40;;
40731;SDS011;26420;52.256;9.096;2022-08-01T05:38:26;4.95;;;3.30;;
40731;SDS011;26420;52.256;9.096;2022-08-01T05:43:27;4.32;;;3.50;;
40731;SDS011;26420;52.256;9.096;2022-08-01T05:48:29;3.92;;;3.28;;
40731;SDS011;26420;52.256;9.096;2022-08-01T05:53:31;7.20;;;3.22;;
40731;SDS011;26420;52.256;9.096;2022-08-01T05:58:35;5.18;;;3.45;;
40731;SDS011;26420;52.256;9.096;2022-08-01T06:03:37;4.57;;;3.60;;
40731;SDS011;26420;52.256;9.096;2022-08-01T06:08:39;8.77;;;3.60;;
40731;SDS011;26420;52.256;9.096;2022-08-01T06:13:41;5.35;;;3.70;;
40731;SDS011;26420;52.256;9.096;2022-08-01T06:18:49;4.55;;;3.75;;
40731;SDS011;26420;52.256;9.096;2022-08-01T06:23:56;4.95;;;3.78;;
40731;SDS011;26420;52.256;9.096;2022-08-01T06:28:58;4.80;;;3.80;;
40731;SDS011;26420;52.256;9.096;2022-08-01T06:33:59;5.97;;;3.40;;
40731;SDS011;26420;52.256;9.096;2022-08-01T06:39:01;5.05;;;2.08;;
40731;SDS011;26420;52.256;9.096;2022-08-01T06:44:03;3.50;;;1.65;;
40731;SDS011;26420;52.256;9.096;2022-08-01T06:49:05;3.95;;;1.92;;
40731;SDS011;26420;52.256;9.096;2022-08-01T06:54:07;3.60;;;2.03;;
40731;SDS011;26420;52.256;9.096;2022-08-01T06:59:09;3.00;;;2.35;;
40731;SDS011;26420;52.256;9.096;2022-08-01T07:04:10;2.78;;;2.58;;
40731;SDS011;26420;52.256;9.096;2022-08-01T07:09:12;4.97;;;3.13;;
40731;SDS011;26420;52.256;9.096;2022-08-01T07:14:15;4.25;;;3.85;;
40731;SDS011;26420;52.256;9.096;2022-08-01T07:19:17;5.70;;;4.25;;
40731;SDS011;26420;52.256;9.096;2022-08-01T07:24:19;4.45;;;4.05;;
40731;SDS011;26420;52.256;9.096;2022-08-01T07:29:22;4.60;;;4.20;;
40731;SDS011;26420;52.256;9.096;2022-08-01T07:34:26;5.30;;;4.78;;
40731;SDS011;26420;52.256;9.096;2022-08-01T07:39:28;5.47;;;4.93;;
40731;SDS011;26420;52.256;9.096;2022-08-01T07:44:29;5.13;;;4.70;;
40731;SDS011;26420;52.256;9.096;2022-08-01T07:49:31;5.75;;;5.25;;
40731;SDS011;26420;52.256;9.096;2022-08-01T07:54:39;6.32;;;5.45;;
40731;SDS011;26420;52.256;9.096;2022-08-01T07:59:41;6.55;;;5.45;;
40731;SDS011;26420;52.256;9.096;2022-08-01T08:04:43;5.75;;;5.22;;
40731;SDS011;26420;52.256;9.096;2022-08-01T08:09:49;4.78;;;4.28;;
40731;SDS011;26420;52.256;9.096;2022-08-01T08:14:51;5.38;;;4.30;;
40731;SDS011;26420;52.256;9.096;2022-08-01T08:19:53;4.45;;;3.30;;
40731;SDS011;26420;52.256;9.096;2022-08-01T08:24:55;3.45;;;2.55;;
40731;SDS011;26420;52.256;9.096;2022-08-01T08:30:01;2.25;;;2.05;;
40731;SDS011;26420;52.256;9.096;2022-08-01T08:35:04;1.90;;;1.80;;
40731;SDS011;26420;52.256;9.096;2022-08-01T08:40:07;1.58;;;1.48;;
40731;SDS011;26420;52.256;9.096;2022-08-01T08:45:10;1.48;;;1.38;;
40731;SDS011;26420;52.256;9.096;2022-08-01T08:50:12;1.40;;;1.30;;
40731;SDS011;26420;52.256;9.096;2022-08-01T08:55:15;2.00;;;1.55;;
40731;SDS011;26420;52.256;9.096;2022-08-01T09:00:20;1.73;;;1.63;;
40731;SDS011;26420;52.256;9.096;2022-08-01T09:05:22;2.40;;;1.95;;
40731;SDS011;26420;52.256;9.096;2022-08-01T09:10:39;2.25;;;2.00;;
40731;SDS011;26420;52.256;9.096;2022-08-01T09:20:47;1.50;;;1.40;;
40731;SDS011;26420;52.256;9.096;2022-08-01T09:25:50;1.42;;;1.33;;
40731;SDS011;26420;52.256;9.096;2022-08-01T09:30:52;2.17;;;1.65;;
40731;SDS011;26420;52.256;9.096;2022-08-01T09:35:56;1.40;;;1.30;;
40731;SDS011;26420;52.256;9.096;2022-08-01T09:40:59;4.25;;;1.20;;
40731;SDS011;26420;52.256;9.096;2022-08-01T09:46:08;1.13;;;1.02;;
40731;SDS011;26420;52.256;9.096;2022-08-01T09:51:13;2.13;;;1.00;;
40731;SDS011;26420;52.256;9.096;2022-08-01T09:57:06;1.60;;;1.05;;
40731;SDS011;26420;52.256;9.096;2022-08-01T10:02:32;1.85;;;1.08;;
40731;SDS011;26420;52.256;9.096;2022-08-01T10:07:35;1.98;;;0.95;;
40731;SDS011;26420;52.256;9.096;2022-08-01T10:12:58;1.23;;;1.13;;
40731;SDS011;26420;52.256;9.096;2022-08-01T10:18:02;1.48;;;1.10;;
40731;SDS011;26420;52.256;9.096;2022-08-01T10:23:26;1.80;;;1.17;;
40731;SDS011;26420;52.256;9.096;2022-08-01T10:28:41;3.15;;;1.02;;
40731;SDS011;26420;52.256;9.096;2022-08-01T10:33:47;1.50;;;1.35;;
40731;SDS011;26420;52.256;9.096;2022-08-01T10:38:54;1.20;;;1.10;;
40731;SDS011;26420;52.256;9.096;2022-08-01T10:43:56;1.50;;;1.30;;
40731;SDS011;26420;52.256;9.096;2022-08-01T10:49:17;1.85;;;1.33;;
40731;SDS011;26420;52.256;9.096;2022-08-01T10:54:24;2.35;;;1.33;;
40731;SDS011;26420;52.256;9.096;2022-08-01T10:59:27;4.22;;;1.50;;
40731;SDS011;26420;52.256;9.096;2022-08-01T11:04:51;3.03;;;1.90;;
40731;SDS011;26420;52.256;9.096;2022-08-01T11:10:04;2.38;;;1.63;;
40731;SDS011;26420;52.256;9.096;2022-08-01T11:20:31;4.57;;;2.25;;
40731;SDS011;26420;52.256;9.096;2022-08-01T11:41:31;5.95;;;2.47;;
40731;SDS011;26420;52.256;9.096;2022-08-01T11:46:58;4.35;;;2.70;;
40731;SDS011;26420;52.256;9.096;2022-08-01T11:52:18;4.65;;;2.78;;
40731;SDS011;26420;52.256;9.096;2022-08-01T11:57:28;2.60;;;2.17;;
40731;SDS011;26420;52.256;9.096;2022-08-01T12:02:35;2.65;;;2.25;;
40731;SDS011;26420;52.256;9.096;2022-08-01T12:07:38;4.43;;;3.28;;
40731;SDS011;26420;52.256;9.096;2022-08-01T12:12:43;6.72;;;4.78;;
40731;SDS011;26420;52.256;9.096;2022-08-01T12:17:47;4.97;;;3.80;;
40731;SDS011;26420;52.256;9.096;2022-08-01T12:23:00;4.53;;;3.22;;
40731;SDS011;26420;52.256;9.096;2022-08-01T12:28:08;5.40;;;2.78;;
40731;SDS011;26420;52.256;9.096;2022-08-01T12:33:16;3.35;;;2.47;;
40731;SDS011;26420;52.256;9.096;2022-08-01T12:38:20;4.97;;;2.83;;
40731;SDS011;26420;52.256;9.096;2022-08-01T12:43:28;4.68;;;3.15;;
40731;SDS011;26420;52.256;9.096;2022-08-01T12:48:32;4.05;;;3.10;;
40731;SDS011;26420;52.256;9.096;2022-08-01T12:53:34;5.38;;;2.90;;
40731;SDS011;26420;52.256;9.096;2022-08-01T12:58:41;5.20;;;3.05;;
40731;SDS011;26420;52.256;9.096;2022-08-01T13:03:56;7.65;;;3.50;;
40731;SDS011;26420;52.256;9.096;2022-08-01T13:09:07;7.25;;;3.88;;
40731;SDS011;26420;52.256;9.096;2022-08-01T13:14:10;5.63;;;3.65;;
40731;SDS011;26420;52.256;9.096;2022-08-01T13:19:12;5.40;;;3.45;;
40731;SDS011;26420;52.256;9.096;2022-08-01T13:24:14;7.32;;;2.58;;
40731;SDS011;26420;52.256;9.096;2022-08-01T13:29:20;4.63;;;2.30;;
40731;SDS011;26420;52.256;9.096;2022-08-01T13:34:33;5.00;;;2.60;;
40731;SDS011;26420;52.256;9.096;2022-08-01T13:39:36;5.90;;;2.50;;
40731;SDS011;26420;52.256;9.096;2022-08-01T13:44:45;7.85;;;2.47;;
40731;SDS011;26420;52.256;9.096;2022-08-01T13:49:47;3.88;;;2.10;;
40731;SDS011;26420;52.256;9.096;2022-08-01T13:54:49;4.53;;;2.33;;
40731;SDS011;26420;52.256;9.096;2022-08-01T13:59:51;4.45;;;1.98;;
40731;SDS011;26420;52.256;9.096;2022-08-01T14:04:53;6.68;;;2.00;;
40731;SDS011;26420;52.256;9.096;2022-08-01T14:09:56;4.90;;;2.00;;
40731;SDS011;26420;52.256;9.096;2022-08-01T14:15:18;4.55;;;1.90;;
40731;SDS011;26420;52.256;9.096;2022-08-01T14:20:39;6.70;;;2.75;;
40731;SDS011;26420;52.256;9.096;2022-08-01T14:25:41;7.50;;;2.00;;
40731;SDS011;26420;52.256;9.096;2022-08-01T14:31:03;3.95;;;1.52;;
40731;SDS011;26420;52.256;9.096;2022-08-01T14:36:07;4.97;;;1.83;;
40731;SDS011;26420;52.256;9.096;2022-08-01T14:41:29;7.20;;;2.03;;
40731;SDS011;26420;52.256;9.096;2022-08-01T14:46:31;7.13;;;1.77;;
40731;SDS011;26420;52.256;9.096;2022-08-01T14:51:34;5.22;;;1.90;;
40731;SDS011;26420;52.256;9.096;2022-08-01T14:56:38;3.55;;;1.73;;
40731;SDS011;26420;52.256;9.096;2022-08-01T15:01:39;5.93;;;1.70;;
40731;SDS011;26420;52.256;9.096;2022-08-01T15:06:41;6.07;;;1.77;;
40731;SDS011;26420;52.256;9.096;2022-08-01T15:11:43;5.03;;;1.85;;
40731;SDS011;26420;52.256;9.096;2022-08-01T15:16:45;5.57;;;1.80;;
40731;SDS011;26420;52.256;9.096;2022-08-01T15:21:46;3.35;;;1.63;;
40731;SDS011;26420;52.256;9.096;2022-08-01T15:26:49;6.15;;;1.75;;
40731;SDS011;26420;52.256;9.096;2022-08-01T15:31:51;6.03;;;1.95;;
40731;SDS011;26420;52.256;9.096;2022-08-01T15:36:53;5.05;;;1.83;;
40731;SDS011;26420;52.256;9.096;2022-08-01T15:41:57;6.10;;;1.98;;
40731;SDS011;26420;52.256;9.096;2022-08-01T15:47:01;4.05;;;1.90;;
40731;SDS011;26420;52.256;9.096;2022-08-01T15:52:04;7.90;;;2.60;;
40731;SDS011;26420;52.256;9.096;2022-08-01T15:57:21;4.85;;;2.15;;
40731;SDS011;26420;52.256;9.096;2022-08-01T16:02:23;2.40;;;2.08;;
40731;SDS011;26420;52.256;9.096;2022-08-01T16:07:25;6.50;;;2.00;;
40731;SDS011;26420;52.256;9.096;2022-08-01T16:12:27;5.30;;;2.63;;
40731;SDS011;26420;52.256;9.096;2022-08-01T16:17:28;4.70;;;2.13;;
40731;SDS011;26420;52.256;9.096;2022-08-01T16:22:30;7.13;;;2.58;;
40731;SDS011;26420;52.256;9.096;2022-08-01T16:27:32;6.47;;;2.78;;
40731;SDS011;26420;52.256;9.096;2022-08-01T16:32:38;6.45;;;3.00;;
40731;SDS011;26420;52.256;9.096;2022-08-01T16:42:46;5.47;;;2.78;;
40731;SDS011;26420;52.256;9.096;2022-08-01T16:47:49;7.38;;;2.50;;
40731;SDS011;26420;52.256;9.096;2022-08-01T16:52:51;7.57;;;2.80;;
40731;SDS011;26420;52.256;9.096;2022-08-01T16:57:53;7.47;;;2.90;;
40731;SDS011;26420;52.256;9.096;2022-08-01T17:02:54;6.80;;;2.53;;
40731;SDS011;26420;52.256;9.096;2022-08-01T17:07:56;5.03;;;2.80;;
40731;SDS011;26420;52.256;9.096;2022-08-01T17:12:58;4.53;;;2.33;;
40731;SDS011;26420;52.256;9.096;2022-08-01T17:18:01;3.65;;;2.28;;
40731;SDS011;26420;52.256;9.096;2022-08-01T17:23:03;6.03;;;2.20;;
40731;SDS011;26420;52.256;9.096;2022-08-01T17:28:04;6.63;;;2.00;;
40731;SDS011;26420;52.256;9.096;2022-08-01T17:33:06;6.97;;;2.00;;
40731;SDS011;26420;52.256;9.096;2022-08-01T17:38:08;6.95;;;1.83;;
40731;SDS011;26420;52.256;9.096;2022-08-01T17:43:09;6.55;;;2.35;;
40731;SDS011;26420;52.256;9.096;2022-08-01T17:48:11;7.78;;;1.90;;
40731;SDS011;26420;52.256;9.096;2022-08-01T17:53:16;7.03;;;1.90;;
40731;SDS011;26420;52.256;9.096;2022-08-01T17:58:21;9.70;;;2.63;;
40731;SDS011;26420;52.256;9.096;2022-08-01T18:03:43;5.90;;;2.70;;
40731;SDS011;26420;52.256;9.096;2022-08-01T18:08:45;6.20;;;1.90;;
40731;SDS011;26420;52.256;9.096;2022-08-01T18:13:48;7.03;;;1.80;;
40731;SDS011;26420;52.256;9.096;2022-08-01T18:18:50;5.13;;;1.55;;
40731;SDS011;26420;52.256;9.096;2022-08-01T18:23:51;6.38;;;1.88;;
40731;SDS011;26420;52.256;9.096;2022-08-01T18:28:53;5.00;;;1.50;;
40731;SDS011;26420;52.256;9.096;2022-08-01T18:33:58;5.20;;;1.48;;
40731;SDS011;26420;52.256;9.096;2022-08-01T18:39:00;4.03;;;1.77;;
40731;SDS011;26420;52.256;9.096;2022-08-01T18:44:10;3.70;;;1.40;;
40731;SDS011;26420;52.256;9.096;2022-08-01T18:49:13;4.05;;;1.52;;
40731;SDS011;26420;52.256;9.096;2022-08-01T18:54:15;14.20;;;7.07;;
40731;SDS011;26420;52.256;9.096;2022-08-01T18:59:17;3.75;;;1.50;;
40731;SDS011;26420;52.256;9.096;2022-08-01T19:04:20;3.45;;;1.85;;
40731;SDS011;26420;52.256;9.096;2022-08-01T19:09:22;4.93;;;1.48;;
40731;SDS011;26420;52.256;9.096;2022-08-01T19:14:24;7.68;;;1.95;;
40731;SDS011;26420;52.256;9.096;2022-08-01T19:19:25;6.03;;;1.80;;
40731;SDS011;26420;52.256;9.096;2022-08-01T19:24:28;4.35;;;1.90;;
40731;SDS011;26420;52.256;9.096;2022-08-01T19:29:30;7.90;;;1.63;;
40731;SDS011;26420;52.256;9.096;2022-08-01T19:34:41;3.63;;;1.67;;
40731;SDS011;26420;52.256;9.096;2022-08-01T19:39:57;3.47;;;1.52;;
40731;SDS011;26420;52.256;9.096;2022-08-01T19:45:00;4.13;;;1.58;;
40731;SDS011;26420;52.256;9.096;2022-08-01T19:50:05;5.03;;;1.70;;
40731;SDS011;26420;52.256;9.096;2022-08-01T19:55:08;6.90;;;1.92;;
40731;SDS011;26420;52.256;9.096;2022-08-01T20:00:11;4.45;;;2.22;;
40731;SDS011;26420;52.256;9.096;2022-08-01T20:05:28;6.43;;;2.08;;
40731;SDS011;26420;52.256;9.096;2022-08-01T20:10:30;4.88;;;2.00;;
40731;SDS011;26420;52.256;9.096;2022-08-01T20:15:32;6.72;;;1.90;;
40731;SDS011;26420;52.256;9.096;2022-08-01T20:20:34;3.88;;;2.13;;
40731;SDS011;26420;52.256;9.096;2022-08-01T20:25:37;6.60;;;1.90;;
40731;SDS011;26420;52.256;9.096;2022-08-01T20:30:42;7.43;;;1.80;;
40731;SDS011;26420;52.256;9.096;2022-08-01T20:35:44;5.25;;;1.90;;
40731;SDS011;26420;52.256;9.096;2022-08-01T20:40:54;4.75;;;1.60;;
40731;SDS011;26420;52.256;9.096;2022-08-01T20:45:59;5.05;;;2.08;;
40731;SDS011;26420;52.256;9.096;2022-08-01T20:51:01;6.32;;;2.00;;
40731;SDS011;26420;52.256;9.096;2022-08-01T20:56:18;5.57;;;1.90;;
40731;SDS011;26420;52.256;9.096;2022-08-01T21:01:34;6.22;;;1.75;;
40731;SDS011;26420;52.256;9.096;2022-08-01T21:06:46;4.82;;;1.73;;
40731;SDS011;26420;52.256;9.096;2022-08-01T21:12:00;5.88;;;2.20;;
40731;SDS011;26420;52.256;9.096;2022-08-01T21:17:11;5.35;;;2.13;;
40731;SDS011;26420;52.256;9.096;2022-08-01T21:22:19;6.85;;;2.40;;
40731;SDS011;26420;52.256;9.096;2022-08-01T21:27:29;4.57;;;2.15;;
40731;SDS011;26420;52.256;9.096;2022-08-01T21:32:34;9.35;;;2.38;;
40731;SDS011;26420;52.256;9.096;2022-08-01T21:37:37;5.57;;;1.90;;
40731;SDS011;26420;52.256;9.096;2022-08-01T21:42:40;7.13;;;2.40;;
40731;SDS011;26420;52.256;9.096;2022-08-01T21:47:46;5.28;;;2.30;;
40731;SDS011;26420;52.256;9.096;2022-08-01T21:53:03;6.35;;;2.47;;
40731;SDS011;26420;52.256;9.096;2022-08-01T22:03:40;9.18;;;2.30;;
40731;SDS011;26420;52.256;9.096;2022-08-01T22:08:51;8.25;;;2.15;;
40731;SDS011;26420;52.256;9.096;2022-08-01T22:13:56;12.90;;;2.70;;
40731;SDS011;26420;52.256;9.096;2022-08-01T22:19:00;5.53;;;2.08;;
40731;SDS011;26420;52.256;9.096;2022-08-01T22:24:03;4.47;;;1.67;;
40731;SDS011;26420;52.256;9.096;2022-08-01T22:29:06;4.80;;;2.13;;
40731;SDS011;26420;52.256;9.096;2022-08-01T22:34:07;6.05;;;2.88;;
40731;SDS011;26420;52.256;9.096;2022-08-01T22:39:09;5.22;;;2.15;;
40731;SDS011;26420;52.256;9.096;2022-08-01T22:44:15;8.70;;;2.38;;
40731;SDS011;26420;52.256;9.096;2022-08-01T22:49:34;8.25;;;2.40;;
40731;SDS011;26420;52.256;9.096;2022-08-01T22:54:40;6.63;;;2.70;;
40731;SDS011;26420;52.256;9.096;2022-08-01T23:05:02;3.28;;;2.00;;
40731;SDS011;26420;52.256;9.096;2022-08-01T23:10:06;7.00;;;2.60;;
40731;SDS011;26420;52.256;9.096;2022-08-01T23:15:08;9.80;;;2.60;;
40731;SDS011;26420;52.256;9.096;2022-08-01T23:20:11;4.95;;;2.17;;
40731;SDS011;26420;52.256;9.096;2022-08-01T23:25:14;6.18;;;2.28;;
40731;SDS011;26420;52.256;9.096;2022-08-01T23:30:16;6.75;;;2.00;;
40731;SDS011;26420;52.256;9.096;2022-08-01T23:35:18;4.60;;;2.00;;
40731;SDS011;26420;52.256;9.096;2022-08-01T23:40:20;6.57;;;2.33;;
40731;SDS011;26420;52.256;9.096;2022-08-01T23:45:25;5.60;;;2.42;;
40731;SDS011;26420;52.256;9.096;2022-08-01T23:50:27;5.53;;;2.25;;
40731;SDS011;26420;52.256;9.096;2022-08-01T23:55:29;6.45;;;2.40;;
